createdAt,value
2022-11-17T00:00:27.591Z,90465.28
2022-11-17T00:03:07.517Z,90465.09
2022-11-17T00:05:35.132Z,90459.47
2022-11-17T00:08:02.756Z,90459.09
2022-11-17T00:10:30.112Z,90459.97
2022-11-17T00:13:13.524Z,90464.91
2022-11-17T00:15:41.317Z,90455.56
2022-11-17T00:18:08.682Z,90446.25
2022-11-17T00:20:36.306Z,90450.31
2022-11-17T00:23:03.786Z,90436.03
2022-11-17T00:25:31.530Z,90434.75
2022-11-17T00:27:58.943Z,90431.81
2022-11-17T00:30:26.451Z,90423.94
2022-11-17T00:33:00.562Z,90437.97
2022-11-17T00:35:28.565Z,90425.81
2022-11-17T00:37:56.021Z,90426.22
2022-11-17T00:40:25.523Z,90423.94
2022-11-17T00:42:53.099Z,90401.19
2022-11-17T00:45:20.720Z,90386.75
2022-11-17T00:47:48.171Z,90392.59
2022-11-17T00:50:15.476Z,90387.88
2022-11-17T00:52:42.713Z,90397.19
2022-11-17T00:55:10.015Z,90415.13
2022-11-17T00:57:37.317Z,90407.63
2022-11-17T01:00:04.558Z,90406.22
2022-11-17T01:02:31.849Z,90404.22
2022-11-17T01:05:01.205Z,90426.13
2022-11-17T01:07:28.552Z,90417.59
2022-11-17T01:09:55.852Z,90406.31
2022-11-17T01:12:23.108Z,90390.72
2022-11-17T01:14:50.346Z,90397.69
2022-11-17T01:17:17.617Z,90426.53
2022-11-17T01:19:46.966Z,90448.34
2022-11-17T01:22:14.257Z,90450.00
2022-11-17T01:24:41.604Z,90456.06
2022-11-17T01:27:08.896Z,90451.44
2022-11-17T01:29:36.123Z,90455.78
2022-11-17T01:32:03.467Z,90445.16
2022-11-17T01:34:30.710Z,90437.91
2022-11-17T01:36:58.057Z,90436.88
2022-11-17T01:39:25.428Z,90427.09
2022-11-17T01:41:52.792Z,90424.50
2022-11-17T01:44:20.143Z,90423.25
2022-11-17T01:46:47.591Z,90430.06
2022-11-17T01:49:14.867Z,90442.31
2022-11-17T01:51:42.142Z,90432.75
2022-11-17T01:54:09.467Z,90434.03
2022-11-17T01:56:36.738Z,90425.31
2022-11-17T01:59:03.965Z,90441.88
2022-11-17T02:01:31.369Z,90439.78
2022-11-17T02:03:58.681Z,90434.94
2022-11-17T02:06:25.952Z,90431.63
2022-11-17T02:08:53.170Z,90438.00
2022-11-17T02:11:20.451Z,90447.31
2022-11-17T02:13:47.673Z,90448.59
2022-11-17T02:16:15.009Z,90451.59
2022-11-17T02:18:42.298Z,90455.47
2022-11-17T02:21:09.628Z,90432.69
2022-11-17T02:23:39.224Z,90412.81
2022-11-17T02:26:07.594Z,90420.78
2022-11-17T02:28:35.099Z,90406.06
2022-11-17T02:31:02.613Z,90407.28
2022-11-17T02:33:30.417Z,90404.41
2022-11-17T02:35:57.810Z,90404.59
2022-11-17T02:38:25.091Z,90393.72
2022-11-17T02:40:52.751Z,90384.69
2022-11-17T02:43:20.002Z,90372.94
2022-11-17T02:45:47.250Z,90363.09
2022-11-17T02:48:14.521Z,90380.66
2022-11-17T02:50:41.756Z,90381.19
2022-11-17T02:53:09.139Z,90393.91
2022-11-17T02:55:36.773Z,90376.13
2022-11-17T02:58:04.220Z,90384.00
2022-11-17T03:00:31.511Z,90377.47
2022-11-17T03:03:01.659Z,90372.72
2022-11-17T03:05:29.454Z,90372.97
2022-11-17T03:08:01.964Z,90391.78
2022-11-17T03:10:29.395Z,90406.75
2022-11-17T03:12:56.681Z,90403.28
2022-11-17T03:15:25.939Z,90410.16
2022-11-17T03:17:53.236Z,90413.84
2022-11-17T03:20:20.480Z,90409.31
2022-11-17T03:22:47.743Z,90409.09
2022-11-17T03:25:15.066Z,90420.06
2022-11-17T03:27:42.354Z,90432.44
2022-11-17T03:30:09.590Z,90412.44
2022-11-17T03:32:36.850Z,90402.16
2022-11-17T03:35:04.125Z,90398.00
2022-11-17T03:37:31.347Z,90410.72
2022-11-17T03:39:58.623Z,90409.28
2022-11-17T03:42:26.020Z,90405.81
2022-11-17T03:44:53.260Z,90410.50
2022-11-17T03:47:20.512Z,90402.66
2022-11-17T03:49:47.771Z,90413.50
2022-11-17T03:52:15.217Z,90411.13
2022-11-17T03:54:42.580Z,90407.06
2022-11-17T03:57:10.224Z,90404.66
2022-11-17T03:59:37.989Z,90402.94
2022-11-17T04:02:05.707Z,90400.78
2022-11-17T04:04:33.647Z,90403.56
2022-11-17T04:07:01.445Z,90404.69
2022-11-17T04:09:30.583Z,90411.84
2022-11-17T04:11:57.813Z,90413.72
2022-11-17T04:14:45.119Z,90425.28
2022-11-17T04:17:15.820Z,90420.78
2022-11-17T04:19:43.065Z,90419.63
2022-11-17T04:22:10.425Z,90424.78
2022-11-17T04:24:38.092Z,90431.16
2022-11-17T04:27:05.528Z,90445.78
2022-11-17T04:29:33.086Z,90447.63
2022-11-17T04:32:00.747Z,90442.94
2022-11-17T04:34:28.140Z,90446.25
2022-11-17T04:36:55.666Z,90435.75
2022-11-17T04:39:23.028Z,90442.91
2022-11-17T04:41:50.302Z,90443.03
2022-11-17T04:44:17.565Z,90435.16
2022-11-17T04:46:44.801Z,90435.25
2022-11-17T04:49:12.086Z,90439.06
2022-11-17T04:51:39.428Z,90429.06
2022-11-17T04:54:06.657Z,90426.97
2022-11-17T04:56:33.927Z,90435.34
2022-11-17T04:59:01.177Z,90421.25
2022-11-17T05:01:28.427Z,90417.53
2022-11-17T05:03:55.680Z,90415.06
2022-11-17T05:06:22.915Z,90414.00
2022-11-17T05:08:50.173Z,90416.34
2022-11-17T05:11:17.537Z,90399.16
2022-11-17T05:13:44.779Z,90422.44
2022-11-17T05:16:12.080Z,90415.91
2022-11-17T05:18:39.345Z,90416.03
2022-11-17T05:21:07.200Z,90417.81
2022-11-17T05:23:35.056Z,90422.38
2022-11-17T05:26:02.959Z,90418.38
2022-11-17T05:28:30.752Z,90419.22
2022-11-17T05:30:58.111Z,90418.06
2022-11-17T05:33:25.872Z,90422.94
2022-11-17T05:35:53.234Z,90416.69
2022-11-17T05:38:20.568Z,90424.81
2022-11-17T05:40:47.843Z,90411.22
2022-11-17T05:43:15.129Z,90423.47
2022-11-17T05:45:42.380Z,90446.41
2022-11-17T05:48:09.603Z,90429.78
2022-11-17T05:50:36.872Z,90434.47
2022-11-17T05:53:04.429Z,90439.47
2022-11-17T05:55:31.963Z,90438.53
2022-11-17T05:58:02.272Z,90440.00
2022-11-17T06:00:29.766Z,90439.56
2022-11-17T06:02:57.353Z,90449.34
2022-11-17T06:05:24.782Z,90453.97
2022-11-17T06:07:52.409Z,90460.28
2022-11-17T06:10:25.312Z,90457.66
2022-11-17T06:12:52.578Z,90441.94
2022-11-17T06:15:19.842Z,90462.13
2022-11-17T06:17:47.089Z,90459.25
2022-11-17T06:20:14.338Z,90462.50
2022-11-17T06:22:45.523Z,90455.78
2022-11-17T06:25:15.516Z,90463.22
2022-11-17T06:27:42.860Z,90468.81
2022-11-17T06:30:12.461Z,90476.88
2022-11-17T06:32:39.936Z,90486.75
2022-11-17T06:35:07.240Z,90493.91
2022-11-17T06:37:35.072Z,90495.25
2022-11-17T06:40:02.777Z,90511.34
2022-11-17T06:42:30.112Z,90488.34
2022-11-17T06:44:57.353Z,90496.09
2022-11-17T06:47:24.596Z,90489.66
2022-11-17T06:49:51.874Z,90500.28
2022-11-17T06:52:19.608Z,90505.38
2022-11-17T06:54:47.053Z,90502.88
2022-11-17T06:57:14.380Z,90501.44
2022-11-17T06:59:41.780Z,90510.56
2022-11-17T07:02:09.126Z,90509.50
2022-11-17T07:04:36.473Z,90514.56
2022-11-17T07:07:04.367Z,90504.16
2022-11-17T07:09:32.327Z,90515.72
2022-11-17T07:11:59.714Z,90525.44
2022-11-17T07:14:27.275Z,90530.34
2022-11-17T07:17:04.793Z,90517.88
2022-11-17T07:19:32.483Z,90520.75
2022-11-17T07:21:59.922Z,90530.72
2022-11-17T07:24:27.612Z,90529.00
2022-11-17T07:26:54.989Z,90520.22
2022-11-17T07:29:22.317Z,90531.16
2022-11-17T07:31:49.713Z,90522.03
2022-11-17T07:34:16.973Z,90525.25
2022-11-17T07:36:44.255Z,90527.56
2022-11-17T07:39:11.650Z,90534.78
2022-11-17T07:41:39.050Z,90520.56
2022-11-17T07:44:06.740Z,90527.13
2022-11-17T07:46:34.122Z,90531.22
2022-11-17T07:49:01.478Z,90521.16
2022-11-17T07:51:28.794Z,90528.56
2022-11-17T07:53:56.150Z,90515.13
2022-11-17T07:56:23.569Z,90520.44
2022-11-17T07:58:50.894Z,90519.16
2022-11-17T08:01:18.342Z,90524.66
2022-11-17T08:03:45.895Z,90530.28
2022-11-17T08:06:13.285Z,90530.66
2022-11-17T08:08:40.838Z,90535.00
2022-11-17T08:11:08.660Z,90530.91
2022-11-17T08:13:36.022Z,90526.34
2022-11-17T08:16:03.373Z,90527.84
2022-11-17T08:18:30.721Z,90533.69
2022-11-17T08:20:58.217Z,90531.41
2022-11-17T08:23:27.529Z,90540.72
2022-11-17T08:25:55.122Z,90535.22
2022-11-17T08:28:22.755Z,90529.84
2022-11-17T08:30:50.598Z,90552.16
2022-11-17T08:33:18.509Z,90545.50
2022-11-17T08:35:46.422Z,90545.63
2022-11-17T08:38:14.302Z,90542.88
2022-11-17T08:40:41.686Z,90564.47
2022-11-17T08:43:10.070Z,90560.56
2022-11-17T08:45:37.421Z,90562.59
2022-11-17T08:48:05.558Z,90562.63
2022-11-17T08:50:32.972Z,90562.19
2022-11-17T08:53:00.363Z,90558.66
2022-11-17T08:55:29.337Z,90565.78
2022-11-17T08:57:56.698Z,90561.94
2022-11-17T09:00:24.472Z,90574.53
2022-11-17T09:02:51.938Z,90578.84
2022-11-17T09:05:19.443Z,90576.66
2022-11-17T09:07:46.929Z,90577.66
2022-11-17T09:10:14.668Z,90581.63
2022-11-17T09:12:41.961Z,90581.25
2022-11-17T09:15:09.317Z,90591.28
2022-11-17T09:17:36.664Z,90593.03
2022-11-17T09:20:04.397Z,90593.31
2022-11-17T09:22:31.784Z,90600.78
2022-11-17T09:24:59.607Z,90616.44
2022-11-17T09:27:26.971Z,90613.94
2022-11-17T09:29:54.513Z,90601.97
2022-11-17T09:32:22.200Z,90604.78
2022-11-17T09:35:07.180Z,90607.44
2022-11-17T09:37:34.625Z,90618.28
2022-11-17T09:40:01.973Z,90612.50
2022-11-17T09:42:29.555Z,90612.56
2022-11-17T09:44:57.313Z,90618.81
2022-11-17T09:47:24.659Z,90620.44
2022-11-17T09:49:58.037Z,90612.81
2022-11-17T09:52:31.485Z,90609.19
2022-11-17T09:54:59.240Z,90610.09
2022-11-17T09:57:26.524Z,90599.19
2022-11-17T09:59:54.551Z,90584.78
2022-11-17T10:02:22.044Z,90561.72
2022-11-17T10:04:59.597Z,90555.19
2022-11-17T10:07:27.008Z,90565.06
2022-11-17T10:09:54.830Z,90562.19
2022-11-17T10:12:22.592Z,90562.22
2022-11-17T10:15:07.158Z,90552.78
2022-11-17T10:17:34.480Z,90554.56
2022-11-17T10:20:01.845Z,90552.53
2022-11-17T10:22:29.576Z,90540.47
2022-11-17T10:24:57.281Z,90543.13
2022-11-17T10:27:25.171Z,90541.41
2022-11-17T10:29:52.500Z,90538.84
2022-11-17T10:32:19.783Z,90543.78
2022-11-17T10:34:48.256Z,90537.47
2022-11-17T10:37:15.581Z,90534.56
2022-11-17T10:39:43.160Z,90533.16
2022-11-17T10:42:10.710Z,90531.09
2022-11-17T10:44:38.563Z,90533.09
2022-11-17T10:47:05.964Z,90524.84
2022-11-17T10:49:33.315Z,90519.66
2022-11-17T10:52:00.849Z,90516.69
2022-11-17T10:54:28.212Z,90519.31
2022-11-17T10:56:55.756Z,90517.19
2022-11-17T10:59:23.156Z,90502.19
2022-11-17T11:01:50.672Z,90504.72
2022-11-17T11:04:18.122Z,90508.09
2022-11-17T11:06:45.806Z,90507.16
2022-11-17T11:09:13.356Z,90508.59
2022-11-17T11:11:49.188Z,90513.19
2022-11-17T11:14:16.687Z,90514.09
2022-11-17T11:16:48.020Z,90517.28
2022-11-17T11:19:16.210Z,90527.09
2022-11-17T11:21:43.650Z,90520.88
2022-11-17T11:24:11.233Z,90513.97
2022-11-17T11:26:39.016Z,90507.00
2022-11-17T11:29:07.047Z,90517.69
2022-11-17T11:31:34.870Z,90521.81
2022-11-17T11:34:02.412Z,90519.34
2022-11-17T11:36:37.145Z,90519.06
2022-11-17T11:39:04.620Z,90505.69
2022-11-17T11:41:32.129Z,90509.72
2022-11-17T11:44:12.131Z,90501.72
2022-11-17T11:46:39.465Z,90505.47
2022-11-17T11:49:07.248Z,90506.81
2022-11-17T11:51:40.373Z,90493.25
2022-11-17T11:54:08.354Z,90485.44
2022-11-17T11:56:36.168Z,90483.63
2022-11-17T11:59:03.582Z,90482.97
2022-11-17T12:01:36.522Z,90467.84
2022-11-17T12:04:03.883Z,90475.00
2022-11-17T12:06:31.756Z,90490.00
2022-11-17T12:08:59.612Z,90488.72
2022-11-17T12:11:27.311Z,90477.00
2022-11-17T12:13:55.116Z,90503.63
2022-11-17T12:16:23.129Z,90506.63
2022-11-17T12:18:50.677Z,90508.63
2022-11-17T12:21:18.032Z,90490.56
2022-11-17T12:23:45.696Z,90491.56
2022-11-17T12:26:13.041Z,90480.00
2022-11-17T12:28:56.099Z,90494.56
2022-11-17T12:31:23.968Z,90484.03
2022-11-17T12:33:51.493Z,90494.03
2022-11-17T12:36:19.492Z,90509.69
2022-11-17T12:38:47.214Z,90512.38
2022-11-17T12:41:14.616Z,90528.44
2022-11-17T12:43:42.191Z,90525.09
2022-11-17T12:46:10.037Z,90532.31
2022-11-17T12:48:54.109Z,90491.22
2022-11-17T12:51:21.669Z,90503.09
2022-11-17T12:53:49.190Z,90509.25
2022-11-17T12:56:27.623Z,90502.38
2022-11-17T12:58:55.070Z,90492.31
2022-11-17T13:01:22.519Z,90499.91
2022-11-17T13:03:49.992Z,90509.22
2022-11-17T13:06:34.896Z,90516.66
2022-11-17T13:09:09.197Z,90516.00
2022-11-17T13:11:36.721Z,90508.41
2022-11-17T13:14:04.236Z,90509.03
2022-11-17T13:16:32.169Z,90508.16
2022-11-17T13:18:59.624Z,90501.06
2022-11-17T13:21:27.361Z,90492.22
2022-11-17T13:23:57.262Z,90488.50
2022-11-17T13:26:24.867Z,90492.13
2022-11-17T13:28:52.184Z,90486.56
2022-11-17T13:31:19.975Z,90484.56
2022-11-17T13:33:47.318Z,90487.44
2022-11-17T13:36:15.077Z,90484.53
2022-11-17T13:38:42.684Z,90475.94
2022-11-17T13:41:11.521Z,90475.88
2022-11-17T13:43:38.927Z,90481.31
2022-11-17T13:46:06.581Z,90466.97
2022-11-17T13:48:34.427Z,90477.28
2022-11-17T13:51:01.802Z,90470.91
2022-11-17T13:53:29.426Z,90471.09
2022-11-17T13:55:56.911Z,90466.69
2022-11-17T13:58:26.915Z,90464.66
2022-11-17T14:00:54.691Z,90463.88
2022-11-17T14:03:22.481Z,90456.69
2022-11-17T14:05:55.433Z,90450.09
2022-11-17T14:08:22.911Z,90445.44
2022-11-17T14:10:50.578Z,90437.41
2022-11-17T14:13:19.492Z,90431.81
2022-11-17T14:15:52.261Z,90426.84
2022-11-17T14:18:29.023Z,90417.78
2022-11-17T14:20:56.394Z,90418.69
2022-11-17T14:23:23.844Z,90413.47
2022-11-17T14:25:51.098Z,90410.69
2022-11-17T14:28:37.236Z,90406.72
2022-11-17T14:31:24.832Z,90402.03
2022-11-17T14:34:12.947Z,90390.97
2022-11-17T14:37:00.795Z,90389.28
2022-11-17T14:39:48.380Z,90393.53
2022-11-17T14:42:36.451Z,90380.22
2022-11-17T14:45:24.177Z,90375.41
2022-11-17T14:48:17.600Z,90377.84
2022-11-17T14:51:06.587Z,90371.78
2022-11-17T14:53:54.159Z,90374.59
2022-11-17T14:56:41.712Z,90361.38
2022-11-17T14:59:29.268Z,90345.72
2022-11-17T15:02:16.826Z,90347.44
2022-11-17T15:05:04.453Z,90340.69
2022-11-17T15:07:51.993Z,90331.22
2022-11-17T15:10:39.568Z,90329.88
2022-11-17T15:13:27.138Z,90315.53
2022-11-17T15:16:14.730Z,90306.44
2022-11-17T15:19:02.329Z,90288.44
2022-11-17T15:21:49.923Z,90287.06
2022-11-17T15:24:37.519Z,90286.78
2022-11-17T15:27:25.108Z,90279.28
2022-11-17T15:30:12.684Z,90274.34
2022-11-17T15:33:00.265Z,90269.16
2022-11-17T15:35:47.893Z,90265.75
2022-11-17T15:38:35.576Z,90274.81
2022-11-17T15:41:23.582Z,90269.06
2022-11-17T15:44:03.590Z,90260.97
2022-11-17T15:46:31.300Z,90258.19
2022-11-17T15:48:58.762Z,90253.84
2022-11-17T15:51:26.454Z,90249.66
2022-11-17T15:53:53.791Z,90254.97
2022-11-17T15:56:21.676Z,90244.19
2022-11-17T15:58:49.000Z,90237.75
2022-11-17T16:01:16.721Z,90239.34
2022-11-17T16:03:44.730Z,90248.56
2022-11-17T16:06:12.490Z,90250.34
2022-11-17T16:08:40.176Z,90263.25
2022-11-17T16:11:07.823Z,90266.56
2022-11-17T16:13:35.466Z,90269.31
2022-11-17T16:16:03.233Z,90256.13
2022-11-17T16:18:30.573Z,90262.34
2022-11-17T16:21:02.979Z,90262.06
2022-11-17T16:23:32.064Z,90269.25
2022-11-17T16:25:59.410Z,90260.28
2022-11-17T16:28:27.168Z,90257.63
2022-11-17T16:30:54.760Z,90257.13
2022-11-17T16:33:28.979Z,90255.00
2022-11-17T16:35:56.714Z,90261.75
2022-11-17T16:38:24.293Z,90263.31
2022-11-17T16:40:52.068Z,90252.66
2022-11-17T16:43:19.617Z,90267.03
2022-11-17T16:45:49.916Z,90273.00
2022-11-17T16:48:17.427Z,90276.75
2022-11-17T16:50:44.834Z,90277.91
2022-11-17T16:53:12.319Z,90289.09
2022-11-17T16:55:40.077Z,90288.47
2022-11-17T16:58:23.941Z,90296.22
2022-11-17T17:00:51.591Z,90292.09
2022-11-17T17:03:19.433Z,90289.75
2022-11-17T17:05:47.137Z,90290.34
2022-11-17T17:08:14.653Z,90284.56
2022-11-17T17:10:42.513Z,90292.66
2022-11-17T17:13:10.010Z,90291.84
2022-11-17T17:15:37.287Z,90302.03
2022-11-17T17:18:04.740Z,90313.03
2022-11-17T17:20:32.601Z,90306.22
2022-11-17T17:23:03.161Z,90307.66
2022-11-17T17:25:30.965Z,90318.69
2022-11-17T17:27:58.429Z,90322.16
2022-11-17T17:30:25.785Z,90330.38
2022-11-17T17:32:53.229Z,90327.88
2022-11-17T17:35:20.612Z,90338.28
2022-11-17T17:37:48.482Z,90340.56
2022-11-17T17:40:23.919Z,90335.47
2022-11-17T17:42:51.370Z,90331.06
2022-11-17T17:45:18.802Z,90328.03
2022-11-17T17:47:46.080Z,90341.03
2022-11-17T17:50:32.181Z,90345.91
2022-11-17T17:53:19.763Z,90374.53
2022-11-17T17:56:07.379Z,90343.72
2022-11-17T17:58:54.945Z,90357.06
2022-11-17T18:01:42.537Z,90349.63
2022-11-17T18:04:30.135Z,90379.28
2022-11-17T18:07:17.742Z,90380.81
2022-11-17T18:10:05.451Z,90372.88
2022-11-17T18:12:53.033Z,90378.53
2022-11-17T18:15:40.598Z,90396.00
2022-11-17T18:18:28.148Z,90405.69
2022-11-17T18:21:15.739Z,90410.25
2022-11-17T18:24:03.299Z,90426.44
2022-11-17T18:26:50.923Z,90432.94
2022-11-17T18:29:38.498Z,90439.56
2022-11-17T18:32:26.077Z,90448.19
2022-11-17T18:35:13.672Z,90453.31
2022-11-17T18:38:01.240Z,90444.59
2022-11-17T18:40:48.810Z,90464.38
2022-11-17T18:43:36.413Z,90465.97
2022-11-17T18:46:25.028Z,90439.56
2022-11-17T18:49:12.592Z,90438.63
2022-11-17T18:52:00.166Z,90437.41
2022-11-17T18:54:47.744Z,90443.38
2022-11-17T18:57:35.369Z,90452.59
2022-11-17T19:00:22.945Z,90456.63
2022-11-17T19:03:10.535Z,90445.81
2022-11-17T19:05:58.110Z,90443.00
2022-11-17T19:08:45.668Z,90444.97
2022-11-17T19:11:33.233Z,90447.84
2022-11-17T19:14:20.844Z,90445.47
2022-11-17T19:17:08.430Z,90441.81
2022-11-17T19:19:55.976Z,90457.00
2022-11-17T19:22:43.559Z,90458.22
2022-11-17T19:25:31.169Z,90466.34
2022-11-17T19:28:18.752Z,90461.69
2022-11-17T19:31:06.313Z,90472.19
2022-11-17T19:33:53.925Z,90467.72
2022-11-17T19:36:41.483Z,90467.75
2022-11-17T19:39:29.125Z,90459.72
2022-11-17T19:42:16.664Z,90464.56
2022-11-17T19:45:04.228Z,90464.34
2022-11-17T19:47:51.844Z,90458.91
2022-11-17T19:50:39.415Z,90458.97
2022-11-17T19:53:26.953Z,90455.19
2022-11-17T19:56:14.517Z,90461.69
2022-11-17T19:59:02.109Z,90472.06
2022-11-17T20:01:49.716Z,90464.59
2022-11-17T20:04:37.277Z,90460.44
2022-11-17T20:07:24.894Z,90476.41
2022-11-17T20:10:12.496Z,90464.00
2022-11-17T20:13:00.084Z,90462.38
2022-11-17T20:15:47.634Z,90464.78
2022-11-17T20:18:35.212Z,90470.69
2022-11-17T20:21:22.759Z,90463.59
2022-11-17T20:24:10.354Z,90457.81
2022-11-17T20:26:57.896Z,90463.19
2022-11-17T20:29:45.464Z,90465.97
2022-11-17T20:32:33.036Z,90460.41
2022-11-17T20:35:20.607Z,90466.94
2022-11-17T20:38:13.004Z,90462.03
2022-11-17T20:41:02.214Z,90460.91
2022-11-17T20:43:49.784Z,90461.81
2022-11-17T20:46:37.343Z,90466.09
2022-11-17T20:49:24.926Z,90467.13
2022-11-17T20:52:13.637Z,90470.03
2022-11-17T20:55:01.283Z,90475.84
2022-11-17T20:57:49.044Z,90457.44
2022-11-17T21:00:36.716Z,90461.25
2022-11-17T21:03:24.279Z,90459.41
2022-11-17T21:06:02.151Z,90462.28
2022-11-17T21:08:29.441Z,90461.25
2022-11-17T21:10:56.742Z,90455.25
2022-11-17T21:13:24.205Z,90450.22
2022-11-17T21:15:51.588Z,90441.47
2022-11-17T21:18:18.822Z,90443.72
2022-11-17T21:20:46.484Z,90440.44
2022-11-17T21:23:14.267Z,90424.19
2022-11-17T21:25:52.773Z,90418.63
2022-11-17T21:28:20.064Z,90427.06
2022-11-17T21:30:47.777Z,90416.25
2022-11-17T21:33:15.452Z,90416.63
2022-11-17T21:35:42.931Z,90430.53
2022-11-17T21:38:10.676Z,90430.13
2022-11-17T21:40:38.945Z,90428.41
2022-11-17T21:43:06.634Z,90440.63
2022-11-17T21:45:35.003Z,90439.72
2022-11-17T21:48:02.654Z,90444.47
2022-11-17T21:50:31.673Z,90431.88
2022-11-17T21:52:59.138Z,90435.69
2022-11-17T21:55:26.568Z,90441.38
2022-11-17T21:57:53.948Z,90442.19
2022-11-17T22:00:21.679Z,90436.56
2022-11-17T22:02:54.780Z,90443.31
2022-11-17T22:05:22.639Z,90440.41
2022-11-17T22:07:50.213Z,90447.53
2022-11-17T22:10:20.179Z,90456.66
2022-11-17T22:12:47.688Z,90452.19
2022-11-17T22:15:15.145Z,90446.25
2022-11-17T22:17:42.688Z,90445.63
2022-11-17T22:20:13.746Z,90431.09
2022-11-17T22:22:41.316Z,90445.22
2022-11-17T22:25:30.264Z,90447.03
2022-11-17T22:28:02.257Z,90440.69
2022-11-17T22:30:29.991Z,90436.44
2022-11-17T22:32:57.986Z,90420.66
2022-11-17T22:35:25.628Z,90426.75
2022-11-17T22:37:55.110Z,90423.25
2022-11-17T22:40:23.712Z,90441.38
2022-11-17T22:42:51.176Z,90436.53
2022-11-17T22:45:18.728Z,90440.56
2022-11-17T22:48:04.644Z,90435.13
2022-11-17T22:50:32.244Z,90429.41
2022-11-17T22:53:02.643Z,90424.72
2022-11-17T22:55:30.497Z,90429.13
2022-11-17T22:58:01.723Z,90437.88
2022-11-17T23:00:29.192Z,90440.84
2022-11-17T23:02:56.752Z,90440.97
2022-11-17T23:05:24.300Z,90433.69
2022-11-17T23:07:51.892Z,90459.72
2022-11-17T23:10:25.339Z,90461.59
2022-11-17T23:12:53.477Z,90472.63
2022-11-17T23:15:20.915Z,90475.38
2022-11-17T23:17:48.392Z,90471.34
2022-11-17T23:20:16.006Z,90474.16
2022-11-17T23:22:43.577Z,90477.31
2022-11-17T23:25:16.157Z,90468.09
2022-11-17T23:27:43.533Z,90476.72
2022-11-17T23:30:11.424Z,90484.06
2022-11-17T23:32:39.259Z,90480.47
2022-11-17T23:35:07.502Z,90497.06
2022-11-17T23:37:34.891Z,90508.16
2022-11-17T23:40:02.569Z,90524.91
2022-11-17T23:42:32.463Z,90527.94
2022-11-17T23:45:00.633Z,90548.22
2022-11-17T23:47:32.636Z,90556.38
2022-11-17T23:50:00.548Z,90544.84
2022-11-17T23:52:28.000Z,90544.47
2022-11-17T23:54:55.317Z,90548.69
2022-11-17T23:57:23.070Z,90541.81
2022-11-17T23:59:50.401Z,90531.81
